Aérodrome :
LOGIN :

S'inscrire | Disclaimer

   EN    FR    IT 

 










Légende :    VFR   VFR Marginal   IFR   IFR Intensif   IFR Très Intensif
Visi : 
Plafond : 
>= 8 km
>= 3000ft
5 à 8 km
1000 à 3000 ft
1500m à 5 km
500 à 1000 ft
800 à 1500m
200 à 500 ft
< 800m
< 200 ft
Symboles :   Orages  Brouillard  Fortes neiges  Fortes précipitations  Vent > 20 kt
SIGMETs :   Divers  Orages  Givrage  Turbulence  Onde Orograph.  Cendres Volcan.







- Altitude de l'aérodrome : 13 ft
- Code IATA : CEQ
- Voir les cartes d'approche


LFMD - Cannes Mandelieu

DERNIER METAR :
  • 180930Z AUTO 01003KT 340V050 CAVOK 12/02 Q1017 TEMPO 08015G25KT

METARs EXPIRÉS :
  • 180900Z AUTO 01004KT 320V060 CAVOK 11/01 Q1017 TEMPO 08015G25KT
  • 180830Z AUTO 36004KT 310V050 CAVOK 09/01 Q1017 TEMPO 08015G25KT
  • 180800Z AUTO 36005KT 330V040 CAVOK 07/00 Q1018 NOSIG
  • 180730Z AUTO 36005KT 330V030 CAVOK 06/00 Q1018 NOSIG
  • 180700Z AUTO 01006KT 340V050 CAVOK 05/M00 Q1017 NOSIG

TAF TAF LFMD
Valide du 18 à 09h jusqu'au 19 à 09h UTC


180800Z 1809/1909 08010KT CAVOK
TEMPO 1810/1815 08015G25KT
BECMG 1818/1820 32010KT
TEMPO 1908/1909 SCT040TCU
ATIS : +33 4 93 48 73 23
Pas de NOTAMs connus pour ce terrain.



MET'MAP, la Météo Aéronautique d'un coup d'oeil ! - Copyright ORBIFLY Décembre 2007 - Disclaimer

ORBIFLY MET'MAP TEAM :

Programmation & Développement : Alexandra Zaïnal
Conception & Développement : Baudouin d'Aumeries
Co-Programmation & Développement : Marc-Olivier Méhu
Soutien technique & logistique : Manuel Goepfert

Contact : metmap@orbifly.com




SOURCES & CREDITS :

   NOAA